createdAt,value
2022-12-28T00:02:25.213Z,1.93
2022-12-28T00:04:53.703Z,1.91
2022-12-28T00:07:22.174Z,1.93
2022-12-28T00:09:50.454Z,1.93
2022-12-28T00:12:20.211Z,2.15
2022-12-28T00:14:48.611Z,2.07
2022-12-28T00:17:16.951Z,2.12
2022-12-28T00:19:45.255Z,1.96
2022-12-28T00:22:13.689Z,1.88
2022-12-28T00:24:42.077Z,1.86
2022-12-28T00:27:10.667Z,1.86
2022-12-28T00:29:40.674Z,1.88
2022-12-28T00:32:09.172Z,1.81
2022-12-28T00:34:37.582Z,1.67
2022-12-28T00:37:10.862Z,1.75
2022-12-28T00:39:42.152Z,1.81
2022-12-28T00:42:11.197Z,1.90
2022-12-28T00:44:41.429Z,1.83
2022-12-28T00:47:09.911Z,1.77
2022-12-28T00:49:38.332Z,1.91
2022-12-28T00:52:06.839Z,1.81
2022-12-28T00:54:35.288Z,1.86
2022-12-28T00:57:03.665Z,1.85
2022-12-28T00:59:32.026Z,1.87
2022-12-28T01:02:02.153Z,1.80
2022-12-28T01:04:30.571Z,1.79
2022-12-28T01:06:58.980Z,1.90
2022-12-28T01:09:27.359Z,1.64
2022-12-28T01:11:55.776Z,1.88
2022-12-28T01:14:24.355Z,1.83
2022-12-28T01:16:53.037Z,1.61
2022-12-28T01:19:25.347Z,1.82
2022-12-28T01:21:54.086Z,1.69
2022-12-28T01:24:22.981Z,1.64
2022-12-28T01:26:51.309Z,1.57
2022-12-28T01:29:19.691Z,1.64
2022-12-28T01:31:48.303Z,1.64
2022-12-28T01:34:16.665Z,1.65
2022-12-28T01:36:47.323Z,1.65
2022-12-28T01:39:16.882Z,1.77
2022-12-28T01:41:45.206Z,1.77
2022-12-28T01:44:48.421Z,1.88
2022-12-28T01:47:21.059Z,1.33
2022-12-28T01:49:56.420Z,1.81
2022-12-28T01:52:31.447Z,1.84
2022-12-28T01:55:04.781Z,2.05
2022-12-28T01:57:37.304Z,1.76
2022-12-28T02:00:10.989Z,1.66
2022-12-28T02:02:39.305Z,1.72
2022-12-28T02:05:09.356Z,1.56
2022-12-28T02:07:45.159Z,1.81
2022-12-28T02:10:44.327Z,1.94
2022-12-28T02:13:03.356Z,2.02
2022-12-28T02:15:31.743Z,1.73
2022-12-28T02:18:00.949Z,1.75
2022-12-28T02:20:38.824Z,1.79
2022-12-28T02:23:47.074Z,1.74
2022-12-28T02:26:36.736Z,1.66
2022-12-28T02:29:37.293Z,1.75
2022-12-28T02:32:26.892Z,1.84
2022-12-28T02:35:03.344Z,1.75
2022-12-28T02:37:37.986Z,1.93
2022-12-28T02:40:11.247Z,1.82
2022-12-28T02:42:40.878Z,1.79
2022-12-28T02:45:55.442Z,1.93
2022-12-28T02:48:41.924Z,1.83
2022-12-28T02:51:33.715Z,1.76
2022-12-28T02:54:53.430Z,1.88
2022-12-28T02:57:37.600Z,1.15
2022-12-28T03:00:09.518Z,1.81
2022-12-28T03:02:58.397Z,1.75
2022-12-28T03:05:55.973Z,1.74
2022-12-28T03:08:35.462Z,1.76
2022-12-28T03:11:08.821Z,1.49
2022-12-28T03:13:45.981Z,1.52
2022-12-28T03:16:19.762Z,1.51
2022-12-28T03:19:12.233Z,1.71
2022-12-28T03:22:00.864Z,1.60
2022-12-28T03:24:49.095Z,1.38
2022-12-28T03:27:37.172Z,1.71
2022-12-28T03:30:26.785Z,1.64
2022-12-28T03:32:55.821Z,1.56
2022-12-28T03:35:35.111Z,1.58
2022-12-28T03:38:04.891Z,1.77
2022-12-28T03:40:41.103Z,1.53
2022-12-28T03:43:34.004Z,1.42
2022-12-28T03:46:07.626Z,1.54
2022-12-28T03:48:37.612Z,1.37
2022-12-28T03:51:07.720Z,1.61
2022-12-28T03:53:41.922Z,1.68
2022-12-28T03:56:12.330Z,1.30
2022-12-28T03:58:40.777Z,1.72
2022-12-28T04:01:09.402Z,1.23
2022-12-28T04:03:38.588Z,1.74
2022-12-28T04:06:09.720Z,1.71
2022-12-28T04:08:38.104Z,1.49
2022-12-28T04:11:06.945Z,1.44
2022-12-28T04:13:35.642Z,1.74
2022-12-28T04:16:06.842Z,0.83
2022-12-28T04:18:36.056Z,1.52
2022-12-28T04:21:04.463Z,1.56
2022-12-28T04:23:34.683Z,1.49
2022-12-28T04:26:04.864Z,1.69
2022-12-28T04:28:34.534Z,1.73
2022-12-28T04:31:04.092Z,1.65
2022-12-28T04:33:35.015Z,1.72
2022-12-28T04:36:07.421Z,1.85
2022-12-28T04:38:37.794Z,1.58
2022-12-28T04:41:08.110Z,1.58
2022-12-28T04:43:36.750Z,1.63
2022-12-28T04:46:07.729Z,1.57
2022-12-28T04:48:36.179Z,1.53
2022-12-28T04:51:09.137Z,1.63
2022-12-28T04:53:43.175Z,1.71
2022-12-28T04:56:13.439Z,1.58
2022-12-28T04:58:42.454Z,1.56
2022-12-28T05:01:12.868Z,1.60
2022-12-28T05:03:49.511Z,1.65
2022-12-28T05:06:23.059Z,1.53
2022-12-28T05:08:54.461Z,1.61
2022-12-28T05:11:24.982Z,1.76
2022-12-28T05:13:53.576Z,1.44
2022-12-28T05:16:23.671Z,1.95
2022-12-28T05:18:52.401Z,1.64
2022-12-28T05:21:22.453Z,1.73
2022-12-28T05:23:51.447Z,1.66
2022-12-28T05:26:23.717Z,1.49
2022-12-28T05:28:52.421Z,1.52
2022-12-28T05:31:22.616Z,1.65
2022-12-28T05:33:51.747Z,1.61
2022-12-28T05:36:21.982Z,1.59
2022-12-28T05:38:50.528Z,1.01
2022-12-28T05:41:22.618Z,1.58
2022-12-28T05:43:51.550Z,1.77
2022-12-28T05:46:21.648Z,1.38
2022-12-28T05:48:50.471Z,1.56
2022-12-28T05:51:21.114Z,2.01
2022-12-28T05:53:49.760Z,1.98
2022-12-28T05:56:20.162Z,1.42
2022-12-28T05:58:55.879Z,1.52
2022-12-28T06:01:25.979Z,1.77
2022-12-28T06:03:55.964Z,1.66
2022-12-28T06:06:24.890Z,1.65
2022-12-28T06:08:53.557Z,1.30
2022-12-28T06:11:24.011Z,1.65
2022-12-28T06:13:54.546Z,1.84
2022-12-28T06:16:25.639Z,1.75
2022-12-28T06:18:54.577Z,1.79
2022-12-28T06:21:25.030Z,1.69
2022-12-28T06:23:53.611Z,1.74
2022-12-28T06:26:22.923Z,1.91
2022-12-28T06:28:53.484Z,1.81
2022-12-28T06:31:23.375Z,1.84
2022-12-28T06:33:54.051Z,1.97
2022-12-28T06:36:24.339Z,1.42
2022-12-28T06:38:54.012Z,1.31
2022-12-28T06:41:24.030Z,1.79
2022-12-28T06:43:54.309Z,1.78
2022-12-28T06:46:24.064Z,2.06
2022-12-28T06:48:52.591Z,2.11
2022-12-28T06:51:22.943Z,1.75
2022-12-28T06:53:53.131Z,1.88
2022-12-28T06:56:24.228Z,2.10
2022-12-28T06:59:02.113Z,2.01
2022-12-28T07:01:33.838Z,2.09
2022-12-28T07:04:04.062Z,2.24
2022-12-28T07:06:37.097Z,2.12
2022-12-28T07:09:08.485Z,2.23
2022-12-28T07:11:37.750Z,1.88
2022-12-28T07:14:07.804Z,2.22
2022-12-28T07:19:03.981Z,2.21
2022-12-28T07:21:34.519Z,1.93
2022-12-28T07:24:03.359Z,1.96
2022-12-28T07:26:33.323Z,2.20
2022-12-28T07:29:03.784Z,1.52
2022-12-28T07:31:43.655Z,2.03
2022-12-28T07:34:13.953Z,1.96
2022-12-28T07:36:42.318Z,2.42
2022-12-28T07:39:10.735Z,2.15
2022-12-28T07:41:39.192Z,2.13
2022-12-28T07:44:07.917Z,2.38
2022-12-28T07:46:39.183Z,2.38
2022-12-28T07:49:08.067Z,2.50
2022-12-28T07:51:38.456Z,2.68
2022-12-28T07:54:07.694Z,2.45
2022-12-28T07:59:05.252Z,2.51
2022-12-28T08:01:35.801Z,2.59
2022-12-28T08:04:07.342Z,2.29
2022-12-28T08:06:37.173Z,2.48
2022-12-28T08:09:07.229Z,2.54
2022-12-28T08:11:38.202Z,2.56
2022-12-28T08:14:08.545Z,2.67
2022-12-28T08:16:39.623Z,2.68
2022-12-28T08:19:10.771Z,2.69
2022-12-28T08:21:41.548Z,2.76
2022-12-28T08:24:14.603Z,2.82
2022-12-28T08:26:44.114Z,3.08
2022-12-28T08:29:15.346Z,2.89
2022-12-28T08:31:45.960Z,2.72
2022-12-28T08:34:20.401Z,2.89
2022-12-28T08:36:48.955Z,3.16
2022-12-28T08:39:17.402Z,2.81
2022-12-28T08:41:45.858Z,2.90
2022-12-28T08:44:14.198Z,2.95
2022-12-28T08:46:42.723Z,2.68
2022-12-28T08:49:11.194Z,2.27
2022-12-28T08:51:42.660Z,2.80
2022-12-28T08:54:13.787Z,3.02
2022-12-28T08:56:44.324Z,2.91
2022-12-28T08:59:16.449Z,2.49
2022-12-28T09:01:45.163Z,2.91
2022-12-28T09:04:16.353Z,3.15
2022-12-28T09:06:46.227Z,2.76
2022-12-28T09:09:16.547Z,3.02
2022-12-28T09:11:45.291Z,2.49
2022-12-28T09:14:22.775Z,3.06
2022-12-28T09:16:51.994Z,3.37
2022-12-28T09:19:20.595Z,3.21
2022-12-28T09:21:52.724Z,2.83
2022-12-28T09:24:22.016Z,3.11
2022-12-28T09:26:53.045Z,2.94
2022-12-28T09:29:21.858Z,3.15
2022-12-28T09:31:50.420Z,2.70
2022-12-28T09:37:09.192Z,2.95
2022-12-28T09:39:38.311Z,3.17
2022-12-28T09:42:16.697Z,3.12
2022-12-28T09:44:56.109Z,3.24
2022-12-28T09:47:30.794Z,3.09
2022-12-28T09:50:26.338Z,3.13
2022-12-28T09:53:08.552Z,3.06
2022-12-28T09:55:39.614Z,3.04
2022-12-28T09:58:19.059Z,3.16
2022-12-28T10:00:50.169Z,3.27
2022-12-28T10:03:22.037Z,3.20
2022-12-28T10:05:52.303Z,3.22
2022-12-28T10:08:24.130Z,3.23
2022-12-28T10:10:54.553Z,3.21
2022-12-28T10:16:19.073Z,2.82
2022-12-28T10:18:48.284Z,3.29
2022-12-28T10:21:18.737Z,3.13
2022-12-28T10:24:29.170Z,3.19
2022-12-28T10:26:39.217Z,3.19
2022-12-28T10:29:13.829Z,3.25
2022-12-28T10:31:43.587Z,3.40
2022-12-28T10:34:18.102Z,3.37
2022-12-28T10:36:47.502Z,3.12
2022-12-28T10:39:24.134Z,3.15
2022-12-28T10:41:54.416Z,3.03
2022-12-28T10:44:39.309Z,2.05
2022-12-28T10:47:18.913Z,2.24
2022-12-28T10:52:41.731Z,2.75
2022-12-28T10:55:30.963Z,3.15
2022-12-28T10:58:33.530Z,3.27
2022-12-28T11:01:07.254Z,2.92
2022-12-28T11:03:36.989Z,3.57
2022-12-28T11:06:27.111Z,3.49
2022-12-28T11:09:06.739Z,3.44
2022-12-28T11:11:36.640Z,3.57
2022-12-28T11:14:11.554Z,3.44
2022-12-28T11:16:41.959Z,3.44
2022-12-28T11:19:11.580Z,3.20
2022-12-28T11:21:40.772Z,3.08
2022-12-28T11:24:14.268Z,3.25
2022-12-28T11:26:47.114Z,3.08
2022-12-28T11:29:17.175Z,3.31
2022-12-28T11:31:50.547Z,3.40
2022-12-28T11:34:25.031Z,3.56
2022-12-28T11:36:53.609Z,3.53
2022-12-28T11:39:45.216Z,3.52
2022-12-28T11:42:53.639Z,3.59
2022-12-28T11:45:52.207Z,3.66
2022-12-28T11:48:49.444Z,3.68
2022-12-28T11:51:19.410Z,3.54
2022-12-28T11:54:00.309Z,3.32
2022-12-28T11:56:45.171Z,3.72
2022-12-28T11:59:27.087Z,3.77
2022-12-28T12:01:59.603Z,3.65
2022-12-28T12:04:36.130Z,3.75
2022-12-28T12:07:44.141Z,3.78
2022-12-28T12:10:39.065Z,3.89
2022-12-28T12:13:42.664Z,3.76
2022-12-28T12:16:23.366Z,3.84
2022-12-28T12:18:54.421Z,3.79
2022-12-28T12:21:31.468Z,3.82
2022-12-28T12:24:07.038Z,3.76
2022-12-28T12:26:40.002Z,3.84
2022-12-28T12:29:16.324Z,3.99
2022-12-28T12:31:50.367Z,3.74
2022-12-28T12:34:25.491Z,4.11
2022-12-28T12:37:21.292Z,3.73
2022-12-28T12:40:05.711Z,3.82
2022-12-28T12:42:46.970Z,3.86
2022-12-28T12:45:26.914Z,3.86
2022-12-28T12:48:19.275Z,3.93
2022-12-28T12:51:21.455Z,4.31
2022-12-28T12:54:16.830Z,4.09
2022-12-28T12:56:51.189Z,4.04
2022-12-28T12:59:43.272Z,4.21
2022-12-28T13:02:42.900Z,4.08
2022-12-28T13:05:20.743Z,4.01
2022-12-28T13:07:50.332Z,3.86
2022-12-28T13:10:24.544Z,3.85
2022-12-28T13:13:01.450Z,3.88
2022-12-28T13:15:30.638Z,3.96
2022-12-28T13:18:34.184Z,4.05
2022-12-28T13:20:58.801Z,4.12
2022-12-28T13:23:28.742Z,3.83
2022-12-28T13:25:59.192Z,4.09
2022-12-28T13:28:30.271Z,4.14
2022-12-28T13:31:08.485Z,4.20
2022-12-28T13:33:36.955Z,4.14
2022-12-28T13:36:24.368Z,4.21
2022-12-28T13:39:05.318Z,4.27
2022-12-28T13:41:36.679Z,4.40
2022-12-28T13:44:29.077Z,4.32
2022-12-28T13:47:03.160Z,4.05
2022-12-28T13:49:37.701Z,4.57
2022-12-28T13:52:17.685Z,4.60
2022-12-28T13:54:52.139Z,4.74
2022-12-28T13:57:55.689Z,4.60
2022-12-28T14:00:12.289Z,4.50
2022-12-28T14:02:42.832Z,4.55
2022-12-28T14:05:17.997Z,4.44
2022-12-28T14:07:48.705Z,4.39
2022-12-28T14:10:17.623Z,4.39
2022-12-28T14:12:47.269Z,4.38
2022-12-28T14:15:17.563Z,4.62
2022-12-28T14:17:48.409Z,4.62
2022-12-28T14:20:17.012Z,4.54
2022-12-28T14:22:45.744Z,4.64
2022-12-28T14:25:18.291Z,4.66
2022-12-28T14:27:57.290Z,4.54
2022-12-28T14:30:28.161Z,5.00
2022-12-28T14:32:57.744Z,4.84
2022-12-28T14:35:29.036Z,3.26
2022-12-28T14:38:00.255Z,4.73
2022-12-28T14:40:33.306Z,4.75
2022-12-28T14:43:08.773Z,4.81
2022-12-28T14:46:05.171Z,4.83
2022-12-28T14:48:38.264Z,4.79
2022-12-28T14:51:24.143Z,4.67
2022-12-28T14:54:17.428Z,4.64
2022-12-28T14:56:50.874Z,4.75
2022-12-28T14:59:25.388Z,4.88
2022-12-28T15:01:53.883Z,4.66
2022-12-28T15:04:36.960Z,4.71
2022-12-28T15:07:06.890Z,4.69
2022-12-28T15:09:35.410Z,4.93
2022-12-28T15:12:13.935Z,4.84
2022-12-28T15:14:43.143Z,4.71
2022-12-28T15:17:12.318Z,4.73
2022-12-28T15:19:40.904Z,4.79
2022-12-28T15:22:09.537Z,4.73
2022-12-28T15:24:39.011Z,4.75
2022-12-28T15:27:07.481Z,4.73
2022-12-28T15:30:04.542Z,4.78
2022-12-28T15:32:25.685Z,4.40
2022-12-28T15:34:54.105Z,4.82
2022-12-28T15:37:22.432Z,4.76
2022-12-28T15:39:50.840Z,4.60
2022-12-28T15:42:19.349Z,4.64
2022-12-28T15:44:51.232Z,4.56
2022-12-28T15:47:21.849Z,4.75
2022-12-28T15:49:50.244Z,4.81
2022-12-28T15:52:18.794Z,4.79
2022-12-28T15:54:47.575Z,4.65
2022-12-28T15:57:16.614Z,4.77
2022-12-28T15:59:45.185Z,4.73
2022-12-28T16:02:15.248Z,4.64
2022-12-28T16:04:43.955Z,4.78
2022-12-28T16:07:12.852Z,4.75
2022-12-28T16:09:41.413Z,4.73
2022-12-28T16:12:10.655Z,4.64
2022-12-28T16:14:39.136Z,4.69
2022-12-28T16:17:08.860Z,4.68
2022-12-28T16:19:39.836Z,4.74
2022-12-28T16:22:08.960Z,4.72
2022-12-28T16:24:37.669Z,4.73
2022-12-28T16:27:06.723Z,4.66
2022-12-28T16:29:35.140Z,4.26
2022-12-28T16:32:03.746Z,4.72
2022-12-28T16:34:32.337Z,4.75
2022-12-28T16:37:02.069Z,4.80
2022-12-28T16:39:31.277Z,4.89
2022-12-28T16:42:00.780Z,4.79
2022-12-28T16:44:29.606Z,4.81
2022-12-28T16:46:59.794Z,4.91
2022-12-28T16:49:30.201Z,4.83
2022-12-28T16:51:58.937Z,4.65
2022-12-28T16:54:28.845Z,4.94
2022-12-28T16:56:57.683Z,4.87
2022-12-28T16:59:28.643Z,4.83
2022-12-28T17:01:59.730Z,4.82
2022-12-28T17:04:29.312Z,4.85
2022-12-28T17:06:57.690Z,4.78
2022-12-28T17:09:25.994Z,4.96
2022-12-28T17:11:55.812Z,4.97
2022-12-28T17:14:37.023Z,4.87
2022-12-28T17:17:06.652Z,4.87
2022-12-28T17:19:35.171Z,4.79
2022-12-28T17:22:04.146Z,4.84
2022-12-28T17:24:32.795Z,4.94
2022-12-28T17:27:08.226Z,4.81
2022-12-28T17:29:38.719Z,4.79
2022-12-28T17:32:07.942Z,4.86
2022-12-28T17:34:36.797Z,4.84
2022-12-28T17:37:05.448Z,4.80
2022-12-28T17:39:39.532Z,4.98
2022-12-28T17:42:12.032Z,4.88
2022-12-28T17:44:40.371Z,5.05
2022-12-28T17:47:09.473Z,4.94
2022-12-28T17:49:37.772Z,4.96
2022-12-28T17:52:08.032Z,4.66
2022-12-28T17:54:36.388Z,5.15
2022-12-28T17:57:04.946Z,5.08
2022-12-28T17:59:35.279Z,5.09
2022-12-28T18:02:05.089Z,4.88
2022-12-28T18:04:34.734Z,5.10
2022-12-28T18:07:03.622Z,5.31
2022-12-28T18:09:32.685Z,4.80
2022-12-28T18:12:01.156Z,5.04
2022-12-28T18:14:29.853Z,4.96
2022-12-28T18:16:59.756Z,5.18
2022-12-28T18:19:28.371Z,4.88
2022-12-28T18:21:56.822Z,4.85
2022-12-28T18:24:26.067Z,5.18
2022-12-28T18:26:54.973Z,4.73
2022-12-28T18:29:23.651Z,4.99
2022-12-28T18:31:53.018Z,4.74
2022-12-28T18:34:22.750Z,5.04
2022-12-28T18:36:51.204Z,5.04
2022-12-28T18:39:19.545Z,5.05
2022-12-28T18:41:48.028Z,5.05
2022-12-28T18:44:17.531Z,4.06
2022-12-28T18:46:46.043Z,5.04
2022-12-28T18:49:14.492Z,5.08
2022-12-28T18:51:44.326Z,5.11
2022-12-28T18:54:12.713Z,5.12
2022-12-28T18:56:41.253Z,5.13
2022-12-28T18:59:09.637Z,5.03
2022-12-28T19:04:29.585Z,4.92
2022-12-28T19:06:59.517Z,5.21
2022-12-28T19:09:28.065Z,5.16
2022-12-28T19:11:56.347Z,5.15
2022-12-28T19:14:25.133Z,5.19
2022-12-28T19:16:53.623Z,5.13
2022-12-28T19:19:22.131Z,5.17
2022-12-28T19:21:56.527Z,5.22
2022-12-28T19:24:28.409Z,5.21
2022-12-28T19:26:56.766Z,5.19
2022-12-28T19:29:25.502Z,5.15
2022-12-28T19:31:54.010Z,5.07
2022-12-28T19:34:22.483Z,5.13
2022-12-28T19:36:51.024Z,5.14
2022-12-28T19:39:19.870Z,5.11
2022-12-28T19:41:49.697Z,5.15
2022-12-28T19:44:20.629Z,4.98
2022-12-28T19:46:49.734Z,5.12
2022-12-28T19:49:18.445Z,4.19
2022-12-28T19:51:46.961Z,5.07
2022-12-28T19:54:15.396Z,5.08
2022-12-28T19:56:44.790Z,5.08
2022-12-28T19:59:14.451Z,5.10
2022-12-28T20:01:43.025Z,4.80
2022-12-28T20:04:13.899Z,4.81
2022-12-28T20:06:44.252Z,5.04
2022-12-28T20:09:14.094Z,5.03
2022-12-28T20:11:42.755Z,4.91
2022-12-28T20:14:14.546Z,5.07
2022-12-28T20:16:43.719Z,5.05
2022-12-28T20:19:12.643Z,5.07
2022-12-28T20:21:42.707Z,5.08
2022-12-28T20:24:13.080Z,5.15
2022-12-28T20:26:41.677Z,5.05
2022-12-28T20:29:10.052Z,5.11
2022-12-28T20:31:39.948Z,5.11
2022-12-28T20:34:08.409Z,4.87
2022-12-28T20:36:36.793Z,5.08
2022-12-28T20:39:05.362Z,5.12
2022-12-28T20:42:03.489Z,4.69
2022-12-28T20:44:34.579Z,5.03
2022-12-28T20:47:25.301Z,5.08
2022-12-28T20:49:55.242Z,4.39
2022-12-28T20:52:24.875Z,4.82
2022-12-28T20:54:54.276Z,5.29
2022-12-28T20:57:24.080Z,5.26
2022-12-28T20:59:53.869Z,4.81
2022-12-28T21:02:25.478Z,4.44
2022-12-28T21:04:55.180Z,5.05
2022-12-28T21:07:25.025Z,5.02
2022-12-28T21:09:54.722Z,4.99
2022-12-28T21:12:24.635Z,4.98
2022-12-28T21:14:54.423Z,4.96
2022-12-28T21:17:26.539Z,5.00
2022-12-28T21:19:55.891Z,4.98
2022-12-28T21:22:25.801Z,4.78
2022-12-28T21:24:55.664Z,4.97
2022-12-28T21:27:25.380Z,4.88
2022-12-28T21:29:56.692Z,4.96
2022-12-28T21:32:28.352Z,4.87
2022-12-28T21:34:58.438Z,4.39
2022-12-28T21:37:37.231Z,4.91
2022-12-28T21:40:09.280Z,4.94
2022-12-28T21:42:39.705Z,4.79
2022-12-28T21:45:10.241Z,4.87
2022-12-28T21:47:41.805Z,4.92
2022-12-28T21:50:13.227Z,4.92
2022-12-28T21:52:43.295Z,4.68
2022-12-28T21:55:30.267Z,5.04
2022-12-28T21:58:01.568Z,5.05
2022-12-28T22:00:48.135Z,4.74
2022-12-28T22:03:36.374Z,4.97
2022-12-28T22:06:07.178Z,4.88
2022-12-28T22:08:53.970Z,4.83
2022-12-28T22:11:41.376Z,4.84
2022-12-28T22:14:11.387Z,4.82
2022-12-28T22:16:41.122Z,4.86
2022-12-28T22:19:12.352Z,4.95
2022-12-28T22:21:41.906Z,5.04
2022-12-28T22:24:11.926Z,5.00
2022-12-28T22:26:41.657Z,5.03
2022-12-28T22:29:11.539Z,4.97
2022-12-28T22:31:41.453Z,4.94
2022-12-28T22:34:11.527Z,4.95
2022-12-28T22:36:39.848Z,5.02
2022-12-28T22:39:08.132Z,4.93
2022-12-28T22:41:36.556Z,5.04
2022-12-28T22:44:05.165Z,4.66
2022-12-28T22:46:33.544Z,5.02
2022-12-28T22:49:01.979Z,5.08
2022-12-28T22:51:31.746Z,4.96
2022-12-28T22:54:00.094Z,4.97
2022-12-28T22:56:28.417Z,4.87
2022-12-28T22:58:56.844Z,4.96
2022-12-28T23:01:25.764Z,4.93
2022-12-28T23:03:54.215Z,4.83
2022-12-28T23:06:22.715Z,4.90
2022-12-28T23:08:52.542Z,4.83
2022-12-28T23:11:34.832Z,4.79
2022-12-28T23:14:17.648Z,4.99
2022-12-28T23:16:46.193Z,4.64
2022-12-28T23:19:32.291Z,4.68
2022-12-28T23:22:19.902Z,4.83
2022-12-28T23:25:07.199Z,4.77
2022-12-28T23:27:38.772Z,4.97
2022-12-28T23:30:10.013Z,4.87
2022-12-28T23:32:38.346Z,4.82
2022-12-28T23:35:07.392Z,4.31
2022-12-28T23:37:35.823Z,4.80
2022-12-28T23:40:05.987Z,4.62
2022-12-28T23:42:36.409Z,4.80
2022-12-28T23:45:05.469Z,4.63
2022-12-28T23:47:33.867Z,4.80
2022-12-28T23:50:02.453Z,4.87
2022-12-28T23:52:31.093Z,4.98
2022-12-28T23:54:59.452Z,5.16
2022-12-28T23:57:29.301Z,4.97
2022-12-28T23:59:57.724Z,5.14
